Relevés horaires Semmerzake (Belgique)


Relevés horaires à Semmerzake - Lundi 18 Janv. 2021
Heure UTC1 Température [°C] Vent [km/h] Hum. [%] Pres.4 [hPa] Visi. [Km] Nébu. [octa] Préc.5 [mm] Cond.
2m. Res. Ros. Dir.2 Vit. Moy. Raf.3
23:00 4.9 2 2.1 SSO 13.0 -- 18.5 82 1018.2(-1.6/3h) 20 -- -- --
22:00 5.3 2.8 2.5 SSO 11.1 -- 16.7 82 1019.7(-1.1/3h) 20 -- -- --
21:00 5.4 3.3 3.2 SSO 9.3 -- 16.7 86 1020.5(-0.8/3h) 19 -- -- NA
20:00 5.1 2.9 4.1 SSO 9.3 -- 16.7 93 1020.2(-0.6/3h) 8 -- -- NA
19:00 5.1 2.9 4.3 SSO 9.3 -- 14.8 95 1020.7(-0.7/3h) 13 -- -- NA
18:00 5.1 3.4 4.2 SO 7.4 -- 14.8 94 1021.2(-0.1/3h) 7 -- -- --
17:00 5.0 2.8 3.9 SSO 9.3 -- 14.8 93 1020.8(-1.6/3h) 13 -- -- --
16:00 5.2 3.5 3.8 SSO 7.4 -- 13.0 91 1021.2(-1.6/3h) 13 -- -- --
15:00 5.4 3.8 3.8 SO 7.4 -- 14.8 89 1021.5(-2.7/3h) 12 -- -- --
14:00 5.8 3.8 3.9 SO 9.3 -- 13.0 88 1022.5(-2.4/3h) 17 -- -- --
13:00 5.3 3.2 3.6 SSO 9.3 -- 14.8 89 1023.1(-2.0/3h) 16 -- -- --
12:00 5.0 3.3 3.3 SO 7.4 -- 13.0 89 1024.2(-1.5/3h) 16 -- -- --
11:00 4.3 2.5 2.9 SO 7.4 -- 13.0 91 1025(-0.1/3h) 14 -- -- --
10:00 3.2 1.2 2.0 SSO 7.4 -- 9.3 92 1025.2(-0.1/3h) 12 -- -- --
09:00 3.4 2 2.0 SO 5.6 -- 11.1 91 1025.7(0.6/3h) 15 -- -- --
08:00 2.2 0.7 1.3 SO 5.6 -- 9.3 94 1025.2(1.4/3h) 11 -- -- --
07:00 1.9 0.3 1.0 SSO 5.6 -- 7.4 94 1025.2(1.2/3h) 11 -- -- --
06:00 1.7 0.1 0.8 SSO 5.6 -- 7.4 94 1025.2(0.8/3h) 10 -- -- --
05:00 1.2 1.2 0.4 SSO 3.7 -- 7.4 94 1023.7(-0.7/3h) 9 -- -- --
04:00 1.7 1.7 0.7 SSO 3.7 -- 5.6 93 1023.8(-1.2/3h) 12 -- -- --
03:00 2.2 2.2 1.2 SO 3.7 -- 7.4 93 1024.4(-1.6/3h) 12 -- -- --
02:00 2.6 2.6 1.3 SO 3.7 -- 7.4 91 1024.5(-1.9/3h) 13 -- -- --
01:00 3.2 1.8 2.0 SO 5.6 -- 7.4 92 1025.2(0.6/3h) 12 -- -- --
00:00 3.2 3.2 2.1 SO 3.7 -- 7.4 92 1025.9(0.8/3h) 11 -- -- --

1 Coordinated Universal Time. Actuellement il est 16:00 locale et 15:00 UTC.

2 Le vent souffle depuis la direction indiquée vers la direction oposée.

3 Les rafales max. sont disponible 40 min après l'heure du relevé.

4 Pour les stations d'altitude (plus de 600m) le géopotentiel du niveau le plus proche de la pression obligatoire est indiqué.

5 Les stations disposant d'un diffuseur peuvent indiquer "trace". Cela signifie que des précipitations ont touchés le sol mais que la quantité est inférieure à 0.1 mm.

Récapitulatif de la journée
Température [°C] Vent [km/h] Ensoleillement4 [h] Precipitations totale5 [mm] Pression [Hpa]
Min1 Max.2 Moy.3 Max. Min Max.
1.1 5.8 0 18.5 0 h 0 min 0 1018.2 1025.9

1 Température minimale relevée entre 18:00 UTC la veille et 18:00 UTC le jour donné.

2 Température maximale relevée entre 06:00 UTC le jour donné et 06:00 UTC le lendemain.

3 Vent moyen de la journée basé sur les relevés horaires.

4 Ensoleillement en heures relevé entre 06:00 UTC la veille et 06:00 UTC le jour donné.

5 Précipitations totales tombées entre 06:00 UTC la jour donné et 06:00 UTC le lendemain.

Graphiques horaires